Time;durP1;ratioP1;P1;durP2;ratioP2;P2;SDS_P1;SDS_P2;PMS_P1;PMS_P2;Temp;Humidity;BMP_temperature;BMP_pressure;BME280_temperature;BME280_humidity;BME280_pressure;Samples;Min_cycle;Max_cycle;Signal;HPM_P1;HPM_P2
2024/02/22 00:01:27;;;;;;;1.40;1.30;;;9.40;99.90;;;;;;5026790;28;20525;-68
2024/02/22 00:03:53;;;;;;;1.40;1.30;;;9.40;99.90;;;;;;5030034;28;20585;-66
2024/02/22 00:06:18;;;;;;;1.57;1.47;;;9.40;99.90;;;;;;5025872;28;21043;-66
2024/02/22 00:08:44;;;;;;;2.60;1.30;;;9.50;99.90;;;;;;5029107;28;20193;-67
2024/02/22 00:11:13;;;;;;;1.40;1.30;;;9.40;99.90;;;;;;5028764;28;20926;-67
2024/02/22 00:13:39;;;;;;;1.20;1.10;;;9.40;99.90;;;;;;5029874;28;20241;-70
2024/02/22 00:16:08;;;;;;;1.10;1.00;;;9.40;99.90;;;;;;5028848;28;20517;-70
2024/02/22 00:18:34;;;;;;;1.30;1.10;;;9.40;99.90;;;;;;5027655;28;20429;-70
2024/02/22 00:21:00;;;;;;;0.83;0.83;;;9.40;99.90;;;;;;5028170;28;21052;-68
2024/02/22 00:23:26;;;;;;;0.90;0.90;;;9.50;99.90;;;;;;5029184;28;20516;-67
2024/02/22 00:25:51;;;;;;;1.00;0.97;;;9.50;99.90;;;;;;5028532;28;20214;-69
2024/02/22 00:28:17;;;;;;;0.90;0.90;;;9.50;99.90;;;;;;5027116;28;20429;-68
2024/02/22 00:30:43;;;;;;;1.50;1.00;;;9.50;99.90;;;;;;5026792;28;20186;-67
2024/02/22 00:33:09;;;;;;;0.93;0.83;;;9.50;99.90;;;;;;5029775;28;20229;-68
2024/02/22 00:35:34;;;;;;;1.10;0.93;;;9.50;99.90;;;;;;5026308;28;20422;-69
2024/02/22 00:38:00;;;;;;;1.20;0.90;;;9.60;99.90;;;;;;5011090;28;20693;-67
2024/02/22 00:40:26;;;;;;;0.93;0.83;;;9.60;99.90;;;;;;5026897;28;20197;-65
2024/02/22 00:42:52;;;;;;;1.10;1.00;;;9.60;99.90;;;;;;5028297;28;20189;-70
2024/02/22 00:45:17;;;;;;;0.93;0.90;;;9.60;99.90;;;;;;5028586;28;20485;-66
2024/02/22 00:47:43;;;;;;;1.10;0.93;;;9.60;99.90;;;;;;5027996;28;20181;-69
2024/02/22 00:50:09;;;;;;;0.70;0.70;;;9.60;99.90;;;;;;5028907;28;20265;-67
2024/02/22 00:52:35;;;;;;;0.97;0.90;;;9.60;99.90;;;;;;5027408;28;20307;-67
2024/02/22 00:55:00;;;;;;;0.80;0.80;;;9.60;99.90;;;;;;5028049;28;20461;-70
2024/02/22 00:57:26;;;;;;;1.13;1.00;;;9.60;99.90;;;;;;5027644;28;20185;-66
2024/02/22 00:59:52;;;;;;;0.90;0.90;;;9.70;99.90;;;;;;5027676;28;20192;-69
2024/02/22 01:02:18;;;;;;;0.87;0.87;;;9.70;99.90;;;;;;5027677;28;20181;-68
2024/02/22 01:04:44;;;;;;;1.17;1.07;;;9.70;99.90;;;;;;5026774;28;20454;-66
2024/02/22 01:07:10;;;;;;;1.20;1.10;;;9.70;99.90;;;;;;5028276;28;20189;-70
2024/02/22 01:09:37;;;;;;;1.20;1.10;;;9.70;99.90;;;;;;5027655;28;20490;-67
2024/02/22 01:12:02;;;;;;;0.90;0.90;;;9.70;99.90;;;;;;5029449;28;20187;-67
2024/02/22 01:14:29;;;;;;;1.73;1.40;;;9.70;99.90;;;;;;5026580;28;20526;-68
2024/02/22 01:16:55;;;;;;;1.70;1.20;;;9.70;99.90;;;;;;5027511;28;20425;-70
2024/02/22 01:19:21;;;;;;;1.83;1.47;;;9.80;99.90;;;;;;5027991;28;20185;-69
2024/02/22 01:21:47;;;;;;;1.10;1.00;;;9.80;99.90;;;;;;5027454;28;20421;-67
2024/02/22 01:24:13;;;;;;;1.33;1.23;;;9.80;99.90;;;;;;5029595;28;20198;-70
2024/02/22 01:26:38;;;;;;;1.10;1.00;;;9.80;99.90;;;;;;5027291;28;20235;-67
2024/02/22 01:29:04;;;;;;;1.07;1.00;;;9.80;99.90;;;;;;5026926;28;20252;-69
2024/02/22 01:31:30;;;;;;;1.37;1.27;;;9.80;99.90;;;;;;5025960;28;20181;-69
2024/02/22 01:33:56;;;;;;;1.00;1.00;;;9.90;99.90;;;;;;5030210;28;20222;-65
2024/02/22 01:36:22;;;;;;;0.80;0.80;;;9.80;99.90;;;;;;5028693;28;20424;-70
2024/02/22 01:38:47;;;;;;;1.20;0.90;;;9.80;99.90;;;;;;5029941;28;20190;-70
2024/02/22 01:41:13;;;;;;;2.70;1.20;;;9.80;99.90;;;;;;5029452;28;20679;-67
2024/02/22 01:43:39;;;;;;;1.33;1.23;;;9.80;99.90;;;;;;5033437;28;20212;-68
2024/02/22 01:46:05;;;;;;;2.93;1.00;;;9.90;99.90;;;;;;5034053;28;20206;-66
2024/02/22 01:48:32;;;;;;;1.10;1.00;;;9.90;99.90;;;;;;5032865;28;20178;-68
2024/02/22 01:50:59;;;;;;;1.50;1.40;;;9.80;99.90;;;;;;5033084;28;20959;-70
2024/02/22 01:53:28;;;;;;;1.07;0.97;;;9.90;99.90;;;;;;5033197;28;20473;-69
2024/02/22 01:55:59;;;;;;;1.27;1.17;;;9.90;99.90;;;;;;5032473;28;20426;-67
2024/02/22 01:58:26;;;;;;;1.23;1.17;;;9.90;99.90;;;;;;5032822;28;20450;-68
2024/02/22 02:00:52;;;;;;;1.40;1.30;;;9.90;99.90;;;;;;5032516;28;20436;-70
2024/02/22 02:03:17;;;;;;;1.13;1.07;;;9.90;99.90;;;;;;5033689;28;21284;-68
2024/02/22 02:05:44;;;;;;;2.10;1.20;;;9.90;99.90;;;;;;5031476;28;20441;-68
2024/02/22 02:08:11;;;;;;;1.20;1.10;;;10.00;99.90;;;;;;5032854;28;20231;-70
2024/02/22 02:10:37;;;;;;;1.10;1.00;;;10.00;99.90;;;;;;5032592;28;20420;-68
2024/02/22 02:13:05;;;;;;;2.90;1.17;;;10.00;99.90;;;;;;5031917;28;20544;-70
2024/02/22 02:15:32;;;;;;;1.33;1.23;;;10.00;99.90;;;;;;5032837;28;20945;-70
2024/02/22 02:17:58;;;;;;;2.10;1.37;;;10.00;99.90;;;;;;5033025;28;20432;-69
2024/02/22 02:20:27;;;;;;;1.40;1.30;;;10.00;99.90;;;;;;5031816;28;20429;-70
2024/02/22 02:22:55;;;;;;;1.33;1.23;;;10.00;99.90;;;;;;5032577;28;20466;-66
2024/02/22 02:25:22;;;;;;;1.30;1.20;;;10.00;99.90;;;;;;5032970;28;20476;-67
2024/02/22 02:27:48;;;;;;;1.40;1.30;;;10.00;99.90;;;;;;5032420;28;20428;-69
2024/02/22 02:30:14;;;;;;;1.70;1.60;;;10.00;99.90;;;;;;5032071;28;20424;-67
2024/02/22 02:32:40;;;;;;;1.43;1.30;;;10.00;99.90;;;;;;5032362;28;20859;-71
2024/02/22 02:35:06;;;;;;;1.97;1.50;;;10.00;99.90;;;;;;5031314;28;20594;-66
2024/02/22 02:37:32;;;;;;;1.60;1.50;;;10.00;99.90;;;;;;5030869;28;20839;-65
2024/02/22 02:39:58;;;;;;;1.43;1.33;;;10.00;99.90;;;;;;5032558;28;20427;-70
2024/02/22 02:42:25;;;;;;;1.60;1.50;;;10.00;99.90;;;;;;5030995;28;20422;-69
2024/02/22 02:44:51;;;;;;;1.80;1.70;;;10.00;99.90;;;;;;5031959;28;20187;-69
2024/02/22 02:47:16;;;;;;;2.00;1.80;;;10.00;99.90;;;;;;5030182;28;20456;-65
2024/02/22 02:49:42;;;;;;;2.17;1.80;;;10.00;99.90;;;;;;5032327;28;20193;-67
2024/02/22 02:52:08;;;;;;;2.10;2.00;;;10.10;99.90;;;;;;5014444;28;20542;-67
2024/02/22 02:54:34;;;;;;;1.73;1.63;;;10.10;99.90;;;;;;5030779;28;20428;-69
2024/02/22 02:56:59;;;;;;;1.90;1.80;;;10.10;99.90;;;;;;5032714;28;20194;-67
2024/02/22 02:59:25;;;;;;;1.97;1.50;;;10.10;99.90;;;;;;5032612;28;20644;-68
2024/02/22 03:01:51;;;;;;;1.50;1.40;;;10.00;99.90;;;;;;5031689;28;20178;-65
2024/02/22 03:04:18;;;;;;;1.70;1.60;;;10.10;99.90;;;;;;5033500;28;20196;-72
2024/02/22 03:06:47;;;;;;;1.47;1.37;;;10.10;99.90;;;;;;5031677;28;20433;-67
2024/02/22 03:09:13;;;;;;;1.40;1.30;;;10.10;99.90;;;;;;5032762;28;20436;-71
2024/02/22 03:11:38;;;;;;;1.60;1.50;;;10.10;99.90;;;;;;5031880;28;20436;-68
2024/02/22 03:14:04;;;;;;;1.63;1.53;;;10.10;99.90;;;;;;5030812;28;20479;-70
2024/02/22 03:16:30;;;;;;;1.70;1.60;;;10.10;99.90;;;;;;5031461;28;20193;-70
2024/02/22 03:18:56;;;;;;;1.97;1.17;;;10.10;99.90;;;;;;5031541;28;20194;-66
2024/02/22 03:21:23;;;;;;;1.40;1.30;;;10.10;99.90;;;;;;5031641;28;20425;-69
2024/02/22 03:23:51;;;;;;;1.30;1.10;;;10.10;99.90;;;;;;5031822;28;20177;-71
2024/02/22 03:26:17;;;;;;;1.30;1.20;;;10.10;99.90;;;;;;5030662;28;20432;-67
2024/02/22 03:28:45;;;;;;;1.33;1.23;;;10.10;99.90;;;;;;5030994;28;20433;-69
2024/02/22 03:31:10;;;;;;;1.10;1.00;;;10.10;99.90;;;;;;5030969;28;20213;-71
2024/02/22 03:33:36;;;;;;;1.13;1.10;;;10.10;99.90;;;;;;5031670;28;20471;-69
2024/02/22 03:36:02;;;;;;;1.53;1.43;;;10.10;99.90;;;;;;5029384;28;20186;-70
2024/02/22 03:38:28;;;;;;;1.50;1.40;;;10.10;99.90;;;;;;5031631;28;20202;-68
2024/02/22 03:40:53;;;;;;;1.40;1.30;;;10.10;99.90;;;;;;5030006;28;20435;-67
2024/02/22 03:43:19;;;;;;;1.37;1.27;;;10.10;99.90;;;;;;5032038;28;20186;-72
2024/02/22 03:45:45;;;;;;;1.37;1.27;;;10.20;99.90;;;;;;5028843;28;20209;-67
2024/02/22 03:48:11;;;;;;;1.30;1.20;;;10.10;99.90;;;;;;5030754;28;20438;-70
2024/02/22 03:50:37;;;;;;;1.23;1.13;;;10.10;99.90;;;;;;5031249;28;20216;-66
2024/02/22 03:53:04;;;;;;;1.50;1.40;;;10.10;99.90;;;;;;5030784;28;20250;-70
2024/02/22 03:55:30;;;;;;;1.30;1.20;;;10.10;99.90;;;;;;5031069;28;20499;-69
2024/02/22 03:57:56;;;;;;;1.20;1.20;;;10.10;99.90;;;;;;5029869;28;20428;-71
2024/02/22 04:00:22;;;;;;;1.40;1.30;;;10.10;99.90;;;;;;5031066;28;20968;-66
2024/02/22 04:02:48;;;;;;;1.40;1.30;;;10.10;99.90;;;;;;5030801;28;20464;-67
2024/02/22 04:05:15;;;;;;;1.47;1.37;;;10.20;99.90;;;;;;5030414;28;20197;-69
2024/02/22 04:07:44;;;;;;;1.00;1.00;;;10.20;99.90;;;;;;5030488;28;20426;-69
2024/02/22 04:10:10;;;;;;;1.87;1.77;;;10.20;99.90;;;;;;5029643;28;20821;-70
2024/02/22 04:12:36;;;;;;;1.80;1.67;;;10.20;99.90;;;;;;5031165;28;20475;-69
2024/02/22 04:15:02;;;;;;;1.53;1.43;;;10.20;99.90;;;;;;5030389;28;20991;-71
2024/02/22 04:17:28;;;;;;;1.97;1.87;;;10.20;99.90;;;;;;5029642;28;20440;-66
2024/02/22 04:19:55;;;;;;;1.80;1.60;;;10.20;99.90;;;;;;5029592;28;20429;-67
2024/02/22 04:22:21;;;;;;;1.50;1.40;;;10.20;99.90;;;;;;5029977;28;20578;-68
2024/02/22 04:24:46;;;;;;;1.60;1.50;;;10.20;99.90;;;;;;5030930;28;21140;-70
2024/02/22 04:27:12;;;;;;;1.90;1.80;;;10.30;99.90;;;;;;5030199;28;20487;-67
2024/02/22 04:29:38;;;;;;;1.77;1.67;;;10.20;99.90;;;;;;5029993;28;20549;-70
2024/02/22 04:32:04;;;;;;;2.00;1.90;;;10.20;99.90;;;;;;5030061;28;20433;-69
2024/02/22 04:34:30;;;;;;;2.10;2.00;;;10.30;99.90;;;;;;5028866;28;20221;-69
2024/02/22 04:36:56;;;;;;;3.97;1.90;;;10.20;99.90;;;;;;5029925;28;20424;-71
2024/02/22 04:39:21;;;;;;;2.00;1.90;;;10.20;99.90;;;;;;5030819;28;20198;-68
2024/02/22 04:41:47;;;;;;;1.80;1.70;;;10.20;99.90;;;;;;5030582;28;20955;-69
2024/02/22 04:44:13;;;;;;;1.90;1.80;;;10.30;99.90;;;;;;5029950;28;20240;-70
2024/02/22 04:46:39;;;;;;;1.80;1.70;;;10.30;99.90;;;;;;5030628;28;20236;-67
2024/02/22 04:49:06;;;;;;;1.40;1.30;;;10.30;99.90;;;;;;5029314;28;20194;-69
2024/02/22 04:51:34;;;;;;;2.10;1.93;;;10.30;99.90;;;;;;5030207;28;20568;-68
2024/02/22 04:54:03;;;;;;;2.27;2.07;;;10.30;99.90;;;;;;5030658;28;20470;-66
2024/02/22 04:56:29;;;;;;;3.93;1.53;;;10.30;99.90;;;;;;5030075;28;20436;-69
2024/02/22 04:58:55;;;;;;;1.70;1.60;;;10.30;99.90;;;;;;5030832;28;20922;-70
2024/02/22 05:01:23;;;;;;;2.17;2.03;;;10.30;99.90;;;;;;5029309;28;20183;-69
2024/02/22 05:03:48;;;;;;;4.03;2.30;;;10.30;99.90;;;;;;5030840;28;20435;-70
2024/02/22 05:06:14;;;;;;;2.00;1.90;;;10.30;99.90;;;;;;5028851;28;20433;-66
2024/02/22 05:08:40;;;;;;;2.00;1.90;;;10.30;99.90;;;;;;5030990;28;20165;-68
2024/02/22 05:11:07;;;;;;;2.40;2.20;;;10.30;99.90;;;;;;5028901;28;20178;-68
2024/02/22 05:13:33;;;;;;;2.23;2.10;;;10.30;99.90;;;;;;5029853;28;20216;-68
2024/02/22 05:15:59;;;;;;;1.90;1.80;;;10.20;99.90;;;;;;5030632;28;20420;-68
2024/02/22 05:18:25;;;;;;;2.07;1.97;;;10.30;99.90;;;;;;5032863;28;20486;-66
2024/02/22 05:20:51;;;;;;;2.27;2.10;;;10.30;99.90;;;;;;5033675;28;20775;-67
2024/02/22 05:23:16;;;;;;;2.37;2.17;;;10.30;99.90;;;;;;5033102;28;20586;-70
2024/02/22 05:25:42;;;;;;;2.00;1.90;;;10.30;99.90;;;;;;5034013;28;20567;-66
2024/02/22 05:28:08;;;;;;;2.53;2.17;;;10.30;99.90;;;;;;5032884;28;20221;-69
2024/02/22 05:30:34;;;;;;;2.20;2.10;;;10.30;99.90;;;;;;5032107;28;20194;-71
2024/02/22 05:33:00;;;;;;;2.47;2.27;;;10.30;99.90;;;;;;5034658;28;20206;-71
2024/02/22 05:35:26;;;;;;;2.30;2.10;;;10.30;99.90;;;;;;5030721;28;20424;-67
2024/02/22 05:37:52;;;;;;;2.87;2.63;;;10.40;99.90;;;;;;5033864;28;20425;-68
2024/02/22 05:40:18;;;;;;;3.10;2.90;;;10.30;99.90;;;;;;5033519;28;20276;-66
2024/02/22 05:42:44;;;;;;;4.07;2.33;;;10.40;99.90;;;;;;5034607;28;20421;-69
2024/02/22 05:45:10;;;;;;;2.60;2.40;;;10.40;99.90;;;;;;5034154;28;20186;-71
2024/02/22 05:47:35;;;;;;;3.20;3.00;;;10.30;99.90;;;;;;5033511;28;20488;-70
2024/02/22 05:50:03;;;;;;;3.30;3.10;;;10.30;99.90;;;;;;5033233;28;20429;-70
2024/02/22 05:52:29;;;;;;;3.33;3.03;;;10.30;99.90;;;;;;5030765;28;20213;-65
2024/02/22 05:54:55;;;;;;;3.10;2.80;;;10.30;99.90;;;;;;5030809;28;20956;-68
2024/02/22 05:57:20;;;;;;;3.40;3.10;;;10.40;99.90;;;;;;5030844;28;20439;-69
2024/02/22 05:59:46;;;;;;;3.70;3.40;;;10.40;99.90;;;;;;5029852;28;20422;-70
2024/02/22 06:02:13;;;;;;;3.50;3.20;;;10.40;99.90;;;;;;5031478;28;20194;-65
2024/02/22 06:04:39;;;;;;;4.20;3.90;;;10.40;99.90;;;;;;5032963;28;20231;-65
2024/02/22 06:07:05;;;;;;;4.23;3.90;;;10.40;99.90;;;;;;5032516;28;20552;-67
2024/02/22 06:09:31;;;;;;;4.63;4.23;;;10.40;99.90;;;;;;5032056;28;20527;-67
2024/02/22 06:11:57;;;;;;;4.53;4.23;;;10.40;99.90;;;;;;5032342;28;20997;-69
2024/02/22 06:14:22;;;;;;;4.23;3.90;;;10.40;99.90;;;;;;5032671;28;20217;-68
2024/02/22 06:16:48;;;;;;;5.67;4.53;;;10.40;99.90;;;;;;5032485;28;20209;-70
2024/02/22 06:19:14;;;;;;;4.27;3.97;;;10.40;99.90;;;;;;5032839;28;20190;-71
2024/02/22 06:21:39;;;;;;;4.17;3.87;;;10.40;99.90;;;;;;5033077;28;20978;-70
2024/02/22 06:24:05;;;;;;;4.90;4.50;;;10.40;99.90;;;;;;5032857;28;20190;-68
2024/02/22 06:26:33;;;;;;;4.93;4.53;;;10.40;99.90;;;;;;5031285;28;20717;-70
2024/02/22 06:28:59;;;;;;;5.00;4.60;;;10.40;99.90;;;;;;5031850;28;20455;-69
2024/02/22 06:31:24;;;;;;;4.60;4.20;;;10.40;99.90;;;;;;5031528;28;20490;-68
2024/02/22 06:33:52;;;;;;;5.17;4.67;;;10.40;99.90;;;;;;5033490;28;20209;-69
2024/02/22 06:36:19;;;;;;;4.50;4.10;;;10.50;99.90;;;;;;5029075;28;20214;-72
2024/02/22 06:38:45;;;;;;;5.17;4.77;;;10.40;99.90;;;;;;5033153;28;20425;-69
2024/02/22 06:41:13;;;;;;;5.03;4.13;;;10.50;99.90;;;;;;5031501;28;20440;-68
2024/02/22 06:43:38;;;;;;;6.07;5.40;;;10.50;99.90;;;;;;5030997;28;21129;-68
2024/02/22 06:46:06;;;;;;;4.23;3.87;;;10.40;99.90;;;;;;5032469;28;20502;-70
2024/02/22 06:48:31;;;;;;;4.17;3.87;;;10.50;99.90;;;;;;5030920;28;20178;-69
2024/02/22 06:50:57;;;;;;;4.50;4.10;;;10.40;99.90;;;;;;5031742;28;20432;-66
2024/02/22 06:53:23;;;;;;;4.30;4.00;;;10.40;99.90;;;;;;5031677;28;20336;-68
2024/02/22 06:55:48;;;;;;;3.70;3.40;;;10.40;99.90;;;;;;5032523;28;20832;-70
2024/02/22 06:58:14;;;;;;;3.97;3.67;;;10.40;99.90;;;;;;5032113;28;20205;-67
2024/02/22 07:00:40;;;;;;;3.60;3.30;;;10.40;99.90;;;;;;5031564;28;20273;-66
2024/02/22 07:03:06;;;;;;;3.50;3.20;;;10.40;99.90;;;;;;5032166;28;20245;-68
2024/02/22 07:05:32;;;;;;;3.63;3.33;;;10.50;99.90;;;;;;5030524;28;20198;-69
2024/02/22 07:07:58;;;;;;;4.03;3.73;;;10.50;99.90;;;;;;5031281;28;20489;-70
2024/02/22 07:10:24;;;;;;;3.60;3.30;;;10.50;99.90;;;;;;5028974;28;20190;-72
2024/02/22 07:12:51;;;;;;;3.30;3.00;;;10.50;99.90;;;;;;5028528;28;20994;-65
2024/02/22 07:15:16;;;;;;;3.10;2.80;;;10.50;99.90;;;;;;5030822;28;20196;-67
2024/02/22 07:17:44;;;;;;;5.97;3.80;;;10.50;99.90;;;;;;5029568;28;20427;-69
2024/02/22 07:20:11;;;;;;;4.10;3.70;;;10.50;99.90;;;;;;5030081;28;20204;-67
2024/02/22 07:22:38;;;;;;;4.13;3.83;;;10.50;99.90;;;;;;5028273;28;20441;-66
2024/02/22 07:25:06;;;;;;;4.23;3.83;;;10.50;99.90;;;;;;5030684;28;20424;-65
2024/02/22 07:27:32;;;;;;;4.20;3.90;;;10.50;99.90;;;;;;5027102;28;20483;-66
2024/02/22 07:29:58;;;;;;;3.80;3.50;;;10.50;99.90;;;;;;5026245;28;20438;-70
2024/02/22 07:32:24;;;;;;;4.13;3.80;;;10.50;99.90;;;;;;5028280;28;20843;-68
2024/02/22 07:34:49;;;;;;;3.40;3.20;;;10.60;99.90;;;;;;5027499;28;20182;-67
2024/02/22 07:37:15;;;;;;;3.17;2.97;;;10.60;99.90;;;;;;5030123;28;20190;-66
2024/02/22 07:39:41;;;;;;;3.90;3.40;;;10.60;99.90;;;;;;5030377;28;20260;-66
2024/02/22 07:42:06;;;;;;;3.63;3.33;;;10.60;99.90;;;;;;5030145;28;20268;-67
2024/02/22 07:44:32;;;;;;;2.97;2.77;;;10.60;99.90;;;;;;5029814;28;20195;-66
2024/02/22 07:46:58;;;;;;;3.03;2.83;;;10.70;99.90;;;;;;5030799;28;20197;-72
2024/02/22 07:49:23;;;;;;;2.80;2.60;;;10.70;99.90;;;;;;5031783;28;20194;-68
2024/02/22 07:51:49;;;;;;;2.70;2.50;;;10.70;99.90;;;;;;5030445;28;20276;-68
2024/02/22 07:54:15;;;;;;;2.77;2.10;;;10.70;99.90;;;;;;5031368;28;20264;-68
2024/02/22 07:56:40;;;;;;;2.40;2.20;;;10.70;99.90;;;;;;5028587;28;20200;-68
2024/02/22 07:59:08;;;;;;;1.97;1.87;;;10.70;99.90;;;;;;5031155;28;20212;-67
2024/02/22 08:01:35;;;;;;;2.27;2.07;;;10.70;99.90;;;;;;5029358;28;20661;-70
2024/02/22 08:04:01;;;;;;;2.20;1.60;;;10.70;99.90;;;;;;5031583;28;20486;-63
2024/02/22 08:06:26;;;;;;;2.13;1.80;;;10.70;99.90;;;;;;5028759;28;20437;-65
2024/02/22 08:08:52;;;;;;;2.20;1.53;;;10.70;99.90;;;;;;5031179;28;20182;-64
2024/02/22 08:11:18;;;;;;;1.90;1.80;;;10.80;99.90;;;;;;5030143;28;21049;-67
2024/02/22 08:13:44;;;;;;;1.67;1.57;;;10.70;99.90;;;;;;5030655;28;20214;-67
2024/02/22 08:16:10;;;;;;;1.40;1.30;;;10.70;99.90;;;;;;5030379;28;20194;-67
2024/02/22 08:18:38;;;;;;;1.33;1.20;;;10.70;99.90;;;;;;5028595;28;20436;-68
2024/02/22 08:21:06;;;;;;;1.53;1.43;;;10.60;99.90;;;;;;5029890;28;20425;-68
2024/02/22 08:23:32;;;;;;;1.30;1.20;;;10.60;99.90;;;;;;5031083;28;20473;-68
2024/02/22 08:25:58;;;;;;;1.67;1.40;;;10.60;99.90;;;;;;5029905;28;20417;-67
2024/02/22 08:28:25;;;;;;;1.40;1.30;;;10.70;99.90;;;;;;5029840;28;20197;-66
2024/02/22 08:30:51;;;;;;;2.87;1.00;;;10.70;99.90;;;;;;5030500;28;20848;-69
2024/02/22 08:33:16;;;;;;;1.40;1.30;;;10.60;99.90;;;;;;5031155;28;20504;-68
2024/02/22 08:35:42;;;;;;;1.67;1.27;;;10.60;99.90;;;;;;5029131;28;20456;-68
2024/02/22 08:38:09;;;;;;;1.10;1.00;;;10.60;99.90;;;;;;5029893;28;20217;-70
2024/02/22 08:40:36;;;;;;;1.30;1.20;;;10.50;99.90;;;;;;5029806;28;20465;-65
2024/02/22 08:43:03;;;;;;;1.10;1.00;;;10.50;99.90;;;;;;5030671;28;20424;-71
2024/02/22 08:45:29;;;;;;;1.27;1.10;;;10.50;99.90;;;;;;5029694;28;20450;-69
2024/02/22 08:47:55;;;;;;;2.77;0.90;;;10.60;99.90;;;;;;5030005;28;20487;-68
2024/02/22 08:50:23;;;;;;;1.00;0.80;;;10.60;99.90;;;;;;5030711;28;21107;-65
2024/02/22 08:52:49;;;;;;;1.20;1.10;;;10.50;99.90;;;;;;5033083;28;20730;-69
2024/02/22 08:55:15;;;;;;;0.90;0.90;;;10.50;99.90;;;;;;5034767;28;20433;-68
2024/02/22 08:57:41;;;;;;;1.10;1.00;;;10.60;99.90;;;;;;5033900;28;20425;-67
2024/02/22 09:00:11;;;;;;;1.17;1.07;;;10.60;99.90;;;;;;5032734;28;20194;-66
2024/02/22 09:02:40;;;;;;;0.93;0.90;;;10.70;99.90;;;;;;5031885;28;20433;-69
2024/02/22 09:05:08;;;;;;;0.93;0.93;;;10.70;99.90;;;;;;5032499;28;20429;-70
2024/02/22 09:07:34;;;;;;;0.87;0.87;;;10.70;99.90;;;;;;5030811;28;20480;-66
2024/02/22 09:10:01;;;;;;;0.80;0.80;;;10.80;99.90;;;;;;5031876;28;20424;-67
2024/02/22 09:12:27;;;;;;;0.80;0.70;;;10.80;99.90;;;;;;5031406;28;20441;-72
2024/02/22 09:14:53;;;;;;;0.70;0.70;;;10.70;99.90;;;;;;5032544;28;20508;-69
2024/02/22 09:17:18;;;;;;;0.70;0.70;;;10.70;99.90;;;;;;5031945;28;20201;-66
2024/02/22 09:19:45;;;;;;;0.70;0.70;;;10.70;99.90;;;;;;5034368;28;20595;-68
2024/02/22 09:22:12;;;;;;;1.10;1.00;;;10.70;99.90;;;;;;5033876;28;20798;-66
2024/02/22 09:24:45;;;;;;;0.80;0.80;;;10.80;99.90;;;;;;5033614;28;20483;-69
2024/02/22 09:27:12;;;;;;;0.60;0.60;;;10.80;99.90;;;;;;5034114;28;20447;-70
2024/02/22 09:29:38;;;;;;;0.63;0.63;;;10.80;99.90;;;;;;5035597;28;20450;-68
2024/02/22 09:32:07;;;;;;;0.83;0.80;;;10.80;99.90;;;;;;5033133;28;20439;-66
2024/02/22 09:34:34;;;;;;;0.70;0.70;;;10.70;99.90;;;;;;5033952;28;20487;-69
2024/02/22 09:37:03;;;;;;;0.80;0.80;;;10.80;99.90;;;;;;5033495;28;20428;-67
2024/02/22 09:39:29;;;;;;;0.80;0.80;;;10.80;99.90;;;;;;5034837;28;20781;-67
2024/02/22 09:41:55;;;;;;;0.90;0.67;;;10.70;99.90;;;;;;5015975;28;20966;-66
2024/02/22 09:44:21;;;;;;;1.47;1.10;;;10.70;99.90;;;;;;5034745;28;20471;-69
2024/02/22 09:46:49;;;;;;;0.70;0.70;;;10.70;99.90;;;;;;5033610;28;20474;-68
2024/02/22 09:49:15;;;;;;;0.73;0.73;;;10.70;99.90;;;;;;5033450;28;21217;-67
2024/02/22 09:51:41;;;;;;;0.80;0.70;;;10.60;99.90;;;;;;5034090;28;20438;-70
2024/02/22 09:54:08;;;;;;;0.87;0.70;;;10.60;99.90;;;;;;5033762;28;20221;-69
2024/02/22 09:56:34;;;;;;;0.70;0.70;;;10.70;99.90;;;;;;5034285;28;20209;-70
2024/02/22 09:59:00;;;;;;;1.47;0.60;;;10.70;99.90;;;;;;5033148;28;20428;-71
2024/02/22 10:01:26;;;;;;;0.97;0.83;;;10.70;99.90;;;;;;5033595;28;21021;-67
2024/02/22 10:03:51;;;;;;;0.67;0.60;;;10.70;99.90;;;;;;5033881;28;20190;-68
2024/02/22 10:06:24;;;;;;;0.77;0.77;;;10.70;99.90;;;;;;5031824;28;20194;-66
2024/02/22 10:08:49;;;;;;;1.17;0.77;;;10.80;99.90;;;;;;5033114;28;20197;-65
2024/02/22 10:11:19;;;;;;;2.23;0.70;;;10.80;99.90;;;;;;5033172;28;20429;-65
2024/02/22 10:13:45;;;;;;;0.73;0.60;;;10.90;99.90;;;;;;5033588;28;20221;-69
2024/02/22 10:16:14;;;;;;;0.67;0.50;;;10.90;99.90;;;;;;5033239;28;20440;-67
2024/02/22 10:18:41;;;;;;;1.00;0.90;;;10.80;99.90;;;;;;5033919;28;20682;-67
2024/02/22 10:21:17;;;;;;;0.90;0.50;;;10.90;99.90;;;;;;5033029;28;20570;-66
2024/02/22 10:23:57;;;;;;;0.90;0.77;;;10.90;99.90;;;;;;5033783;28;20433;-69
2024/02/22 10:26:26;;;;;;;0.60;0.60;;;10.90;99.90;;;;;;5015497;28;20432;-66
2024/02/22 10:29:08;;;;;;;0.50;0.40;;;10.90;99.90;;;;;;5032731;28;20434;-68
2024/02/22 10:31:45;;;;;;;0.50;0.47;;;10.90;99.90;;;;;;5033429;28;20433;-70
2024/02/22 10:34:12;;;;;;;0.50;0.40;;;10.90;99.90;;;;;;5032568;28;20483;-70
2024/02/22 10:36:40;;;;;;;1.53;0.43;;;10.90;99.90;;;;;;5031150;28;20432;-64
2024/02/22 10:39:08;;;;;;;0.60;0.40;;;10.80;99.90;;;;;;5032690;28;20428;-66
2024/02/22 10:41:37;;;;;;;0.80;0.60;;;10.90;99.90;;;;;;5031825;28;20425;-67
2024/02/22 10:44:03;;;;;;;0.83;0.60;;;10.90;99.90;;;;;;5031407;28;20444;-69
2024/02/22 10:46:34;;;;;;;0.60;0.40;;;10.90;99.90;;;;;;5032377;28;20444;-66
2024/02/22 10:49:02;;;;;;;0.83;0.60;;;10.90;99.90;;;;;;5032118;28;20536;-69
2024/02/22 10:51:29;;;;;;;0.60;0.43;;;11.00;99.90;;;;;;5032511;28;20442;-64
2024/02/22 10:53:56;;;;;;;0.60;0.53;;;11.00;99.90;;;;;;5032654;28;21013;-66
2024/02/22 10:56:23;;;;;;;0.93;0.57;;;11.00;99.90;;;;;;5032235;28;20425;-70
2024/02/22 10:58:57;;;;;;;1.00;0.40;;;11.00;99.90;;;;;;5033645;28;20420;-69
2024/02/22 11:01:26;;;;;;;0.70;0.60;;;11.00;99.90;;;;;;5030870;28;20429;-66
2024/02/22 11:03:52;;;;;;;0.60;0.40;;;11.10;99.90;;;;;;5032746;28;21096;-70
2024/02/22 11:06:21;;;;;;;0.57;0.40;;;11.10;99.90;;;;;;5031410;28;21303;-68
2024/02/22 11:09:01;;;;;;;0.60;0.50;;;11.20;99.90;;;;;;5032581;28;20460;-69
2024/02/22 11:11:28;;;;;;;0.73;0.53;;;11.30;99.90;;;;;;5031063;28;20425;-67
2024/02/22 11:14:02;;;;;;;0.90;0.40;;;11.30;99.90;;;;;;5031851;28;20469;-69
2024/02/22 11:16:34;;;;;;;0.63;0.50;;;11.30;99.90;;;;;;5031657;28;20441;-70
2024/02/22 11:19:14;;;;;;;0.50;0.50;;;11.30;99.90;;;;;;5029025;28;20424;-68
2024/02/22 11:21:43;;;;;;;0.70;0.60;;;11.40;99.90;;;;;;5030321;28;20784;-70
2024/02/22 11:24:29;;;;;;;0.90;0.60;;;11.40;99.90;;;;;;5030330;28;20433;-64
2024/02/22 11:26:56;;;;;;;0.60;0.40;;;11.50;99.90;;;;;;5031361;28;20520;-68
2024/02/22 11:29:32;;;;;;;0.80;0.50;;;11.50;99.90;;;;;;5030401;28;21105;-68
2024/02/22 11:32:02;;;;;;;0.50;0.40;;;11.50;99.90;;;;;;5031558;28;20447;-69
2024/02/22 11:34:29;;;;;;;0.77;0.50;;;11.50;99.90;;;;;;5030563;28;20504;-69
2024/02/22 11:36:56;;;;;;;0.50;0.40;;;11.60;99.90;;;;;;5030335;28;20421;-67
2024/02/22 11:39:23;;;;;;;0.70;0.50;;;11.60;99.90;;;;;;5030415;28;20436;-68
2024/02/22 11:41:49;;;;;;;0.50;0.50;;;11.60;99.90;;;;;;5029326;28;20428;-65
2024/02/22 11:44:16;;;;;;;1.03;0.70;;;11.60;99.90;;;;;;5029877;28;21071;-69
2024/02/22 11:46:42;;;;;;;1.00;0.60;;;11.60;99.90;;;;;;5029946;28;20476;-71
2024/02/22 11:49:09;;;;;;;0.80;0.50;;;11.70;99.90;;;;;;5030617;28;20433;-66
2024/02/22 11:51:35;;;;;;;1.03;0.60;;;11.80;99.90;;;;;;5030333;28;21052;-67
2024/02/22 11:54:01;;;;;;;0.80;0.67;;;11.80;99.90;;;;;;5030490;28;20799;-69
2024/02/22 11:56:28;;;;;;;0.80;0.67;;;11.80;99.90;;;;;;5029464;28;20533;-68
2024/02/22 11:58:58;;;;;;;0.60;0.50;;;11.80;99.90;;;;;;5030351;28;20914;-70
2024/02/22 12:01:27;;;;;;;0.60;0.40;;;11.90;99.90;;;;;;5029969;28;20565;-65
2024/02/22 12:03:55;;;;;;;0.70;0.50;;;11.90;99.90;;;;;;5030263;28;20859;-67
2024/02/22 12:06:22;;;;;;;0.60;0.50;;;12.00;99.90;;;;;;5027971;28;20851;-67
2024/02/22 12:08:50;;;;;;;0.50;0.43;;;12.10;99.90;;;;;;5030821;28;20502;-70
2024/02/22 12:11:17;;;;;;;1.03;0.50;;;12.20;99.90;;;;;;5029035;28;20544;-68
2024/02/22 12:13:54;;;;;;;4.97;0.60;;;12.30;99.90;;;;;;5030524;28;20850;-67
2024/02/22 12:16:19;;;;;;;1.70;0.70;;;12.40;99.90;;;;;;5029721;28;20892;-68
2024/02/22 12:18:45;;;;;;;0.70;0.50;;;12.50;99.90;;;;;;5030100;28;20456;-67
2024/02/22 12:21:11;;;;;;;0.60;0.40;;;12.70;99.90;;;;;;5030313;28;20198;-68
2024/02/22 12:23:37;;;;;;;4.20;0.50;;;12.90;99.90;;;;;;5028290;28;20279;-66
2024/02/22 12:26:06;;;;;;;0.50;0.40;;;13.00;99.90;;;;;;5029757;28;20544;-71
2024/02/22 12:28:35;;;;;;;1.27;0.63;;;13.10;99.90;;;;;;5028571;28;20671;-65
2024/02/22 12:31:03;;;;;;;0.67;0.40;;;13.10;99.90;;;;;;5029373;28;20437;-70
2024/02/22 12:33:30;;;;;;;1.23;0.60;;;13.10;99.90;;;;;;5029870;28;20575;-68
2024/02/22 12:35:57;;;;;;;0.57;0.40;;;13.10;99.90;;;;;;5027184;28;20471;-69
2024/02/22 12:38:23;;;;;;;0.50;0.40;;;13.20;99.90;;;;;;5029000;28;20437;-67
2024/02/22 12:40:49;;;;;;;1.23;0.70;;;13.10;99.90;;;;;;5028620;28;20475;-67
2024/02/22 12:43:17;;;;;;;0.50;0.40;;;13.00;99.90;;;;;;5029553;28;20439;-69
2024/02/22 12:45:44;;;;;;;0.50;0.40;;;13.00;99.90;;;;;;5029278;28;20233;-67